sensor_id;sensor_type;location;lat;lon;timestamp;temperature;humidity
3312;DHT22;1668;49.648;8.570;2023-05-10T00:01:27;14.50;99.90
3312;DHT22;1668;49.648;8.570;2023-05-10T00:04:13;14.50;99.90
3312;DHT22;1668;49.648;8.570;2023-05-10T00:06:40;14.50;99.90
3312;DHT22;1668;49.648;8.570;2023-05-10T00:09:08;14.50;99.90
3312;DHT22;1668;49.648;8.570;2023-05-10T00:11:35;14.50;99.90
3312;DHT22;1668;49.648;8.570;2023-05-10T00:14:02;14.40;99.90
3312;DHT22;1668;49.648;8.570;2023-05-10T00:16:28;14.40;99.90
3312;DHT22;1668;49.648;8.570;2023-05-10T00:18:55;14.40;99.90
3312;DHT22;1668;49.648;8.570;2023-05-10T00:21:22;14.40;99.90
3312;DHT22;1668;49.648;8.570;2023-05-10T00:23:49;14.30;99.90
3312;DHT22;1668;49.648;8.570;2023-05-10T00:26:17;14.30;99.90
3312;DHT22;1668;49.648;8.570;2023-05-10T00:28:44;14.40;99.90
3312;DHT22;1668;49.648;8.570;2023-05-10T00:31:11;14.30;99.90
3312;DHT22;1668;49.648;8.570;2023-05-10T00:33:37;14.30;99.90
3312;DHT22;1668;49.648;8.570;2023-05-10T00:36:05;14.30;99.90
3312;DHT22;1668;49.648;8.570;2023-05-10T00:38:33;14.30;99.90
3312;DHT22;1668;49.648;8.570;2023-05-10T00:41:00;14.30;99.90
3312;DHT22;1668;49.648;8.570;2023-05-10T00:43:28;14.30;99.90
3312;DHT22;1668;49.648;8.570;2023-05-10T00:45:55;14.30;99.90
3312;DHT22;1668;49.648;8.570;2023-05-10T00:48:22;14.30;99.90
3312;DHT22;1668;49.648;8.570;2023-05-10T00:50:49;14.30;99.90
3312;DHT22;1668;49.648;8.570;2023-05-10T00:53:16;14.20;99.90
3312;DHT22;1668;49.648;8.570;2023-05-10T00:55:43;14.30;99.90
3312;DHT22;1668;49.648;8.570;2023-05-10T00:58:10;14.30;99.90
3312;DHT22;1668;49.648;8.570;2023-05-10T01:00:41;14.30;99.90
3312;DHT22;1668;49.648;8.570;2023-05-10T01:03:09;14.20;99.90
3312;DHT22;1668;49.648;8.570;2023-05-10T01:05:36;14.20;99.90
3312;DHT22;1668;49.648;8.570;2023-05-10T01:08:03;14.20;99.90
3312;DHT22;1668;49.648;8.570;2023-05-10T01:10:32;14.20;99.90
3312;DHT22;1668;49.648;8.570;2023-05-10T01:12:59;14.20;99.90
3312;DHT22;1668;49.648;8.570;2023-05-10T01:15:26;14.20;99.90
3312;DHT22;1668;49.648;8.570;2023-05-10T01:17:55;14.20;99.90
3312;DHT22;1668;49.648;8.570;2023-05-10T01:20:32;14.10;99.90
3312;DHT22;1668;49.648;8.570;2023-05-10T01:26:13;14.10;99.90
3312;DHT22;1668;49.648;8.570;2023-05-10T01:28:58;14.20;99.90
3312;DHT22;1668;49.648;8.570;2023-05-10T01:34:27;14.20;99.90
3312;DHT22;1668;49.648;8.570;2023-05-10T01:37:00;14.10;99.90
3312;DHT22;1668;49.648;8.570;2023-05-10T01:39:36;14.10;99.90
3312;DHT22;1668;49.648;8.570;2023-05-10T01:42:09;14.10;99.90
3312;DHT22;1668;49.648;8.570;2023-05-10T01:44:39;14.10;99.90
3312;DHT22;1668;49.648;8.570;2023-05-10T01:47:11;14.10;99.90
3312;DHT22;1668;49.648;8.570;2023-05-10T01:49:43;14.00;99.90
3312;DHT22;1668;49.648;8.570;2023-05-10T01:52:14;14.00;99.90
3312;DHT22;1668;49.648;8.570;2023-05-10T01:54:49;14.00;99.90
3312;DHT22;1668;49.648;8.570;2023-05-10T01:57:19;14.00;99.90
3312;DHT22;1668;49.648;8.570;2023-05-10T01:59:49;14.00;99.90
3312;DHT22;1668;49.648;8.570;2023-05-10T02:02:18;14.10;99.90
3312;DHT22;1668;49.648;8.570;2023-05-10T02:04:49;14.10;99.90
3312;DHT22;1668;49.648;8.570;2023-05-10T02:07:17;14.10;99.90
3312;DHT22;1668;49.648;8.570;2023-05-10T02:09:45;14.00;99.90
3312;DHT22;1668;49.648;8.570;2023-05-10T02:12:14;14.10;99.90
3312;DHT22;1668;49.648;8.570;2023-05-10T02:14:42;14.00;99.90
3312;DHT22;1668;49.648;8.570;2023-05-10T02:17:09;14.00;99.90
3312;DHT22;1668;49.648;8.570;2023-05-10T02:19:38;14.00;99.90
3312;DHT22;1668;49.648;8.570;2023-05-10T02:22:08;14.00;99.90
3312;DHT22;1668;49.648;8.570;2023-05-10T02:24:36;14.00;99.90
3312;DHT22;1668;49.648;8.570;2023-05-10T02:27:04;14.00;99.90
3312;DHT22;1668;49.648;8.570;2023-05-10T02:29:32;14.00;99.90
3312;DHT22;1668;49.648;8.570;2023-05-10T02:32:00;14.00;99.90
3312;DHT22;1668;49.648;8.570;2023-05-10T02:34:28;14.00;99.90
3312;DHT22;1668;49.648;8.570;2023-05-10T02:36:56;14.00;99.90
3312;DHT22;1668;49.648;8.570;2023-05-10T02:39:24;14.00;99.90
3312;DHT22;1668;49.648;8.570;2023-05-10T02:41:54;13.90;99.90
3312;DHT22;1668;49.648;8.570;2023-05-10T02:44:22;13.90;99.90
3312;DHT22;1668;49.648;8.570;2023-05-10T02:46:50;14.00;99.90
3312;DHT22;1668;49.648;8.570;2023-05-10T02:49:18;13.90;99.90
3312;DHT22;1668;49.648;8.570;2023-05-10T02:51:50;13.90;99.90
3312;DHT22;1668;49.648;8.570;2023-05-10T02:54:19;13.90;99.90
3312;DHT22;1668;49.648;8.570;2023-05-10T02:56:51;13.90;99.90
3312;DHT22;1668;49.648;8.570;2023-05-10T02:59:20;13.90;99.90
3312;DHT22;1668;49.648;8.570;2023-05-10T03:01:47;13.90;99.90
3312;DHT22;1668;49.648;8.570;2023-05-10T03:04:13;13.80;99.90
3312;DHT22;1668;49.648;8.570;2023-05-10T03:06:40;13.80;99.90
3312;DHT22;1668;49.648;8.570;2023-05-10T03:09:08;13.80;99.90
3312;DHT22;1668;49.648;8.570;2023-05-10T03:11:47;13.80;99.90
3312;DHT22;1668;49.648;8.570;2023-05-10T03:14:26;13.80;99.90
3312;DHT22;1668;49.648;8.570;2023-05-10T03:17:00;13.80;99.90
3312;DHT22;1668;49.648;8.570;2023-05-10T03:19:34;13.80;99.90
3312;DHT22;1668;49.648;8.570;2023-05-10T03:22:08;13.80;99.90
3312;DHT22;1668;49.648;8.570;2023-05-10T03:24:36;13.80;99.90
3312;DHT22;1668;49.648;8.570;2023-05-10T03:27:06;13.70;99.90
3312;DHT22;1668;49.648;8.570;2023-05-10T03:29:36;13.70;99.90
3312;DHT22;1668;49.648;8.570;2023-05-10T03:32:04;13.70;99.90
3312;DHT22;1668;49.648;8.570;2023-05-10T03:34:31;13.70;99.90
3312;DHT22;1668;49.648;8.570;2023-05-10T03:36:58;13.70;99.90
3312;DHT22;1668;49.648;8.570;2023-05-10T03:39:25;13.70;99.90
3312;DHT22;1668;49.648;8.570;2023-05-10T03:41:51;13.70;99.90
3312;DHT22;1668;49.648;8.570;2023-05-10T03:44:18;13.70;99.90
3312;DHT22;1668;49.648;8.570;2023-05-10T03:46:46;13.60;99.90
3312;DHT22;1668;49.648;8.570;2023-05-10T03:49:13;13.60;99.90
3312;DHT22;1668;49.648;8.570;2023-05-10T03:51:40;13.70;99.90
3312;DHT22;1668;49.648;8.570;2023-05-10T03:54:06;13.70;99.90
3312;DHT22;1668;49.648;8.570;2023-05-10T03:56:33;13.60;99.90
3312;DHT22;1668;49.648;8.570;2023-05-10T03:59:00;13.60;99.90
3312;DHT22;1668;49.648;8.570;2023-05-10T04:01:27;13.60;99.90
3312;DHT22;1668;49.648;8.570;2023-05-10T04:03:55;13.60;99.90
3312;DHT22;1668;49.648;8.570;2023-05-10T04:06:21;13.60;99.90
3312;DHT22;1668;49.648;8.570;2023-05-10T04:08:48;13.60;99.90
3312;DHT22;1668;49.648;8.570;2023-05-10T04:11:15;13.60;99.90
3312;DHT22;1668;49.648;8.570;2023-05-10T04:13:42;13.60;99.90
3312;DHT22;1668;49.648;8.570;2023-05-10T04:16:09;13.60;99.90
3312;DHT22;1668;49.648;8.570;2023-05-10T04:18:36;13.60;99.90
3312;DHT22;1668;49.648;8.570;2023-05-10T04:21:04;13.50;99.90
3312;DHT22;1668;49.648;8.570;2023-05-10T04:23:31;13.50;99.90
3312;DHT22;1668;49.648;8.570;2023-05-10T04:26:00;13.50;99.90
3312;DHT22;1668;49.648;8.570;2023-05-10T04:28:27;13.50;99.90
3312;DHT22;1668;49.648;8.570;2023-05-10T04:31:00;13.50;99.90
3312;DHT22;1668;49.648;8.570;2023-05-10T04:33:27;13.50;99.90
3312;DHT22;1668;49.648;8.570;2023-05-10T04:35:54;13.50;99.90
3312;DHT22;1668;49.648;8.570;2023-05-10T04:38:22;13.40;99.90
3312;DHT22;1668;49.648;8.570;2023-05-10T04:40:49;13.40;99.90
3312;DHT22;1668;49.648;8.570;2023-05-10T04:43:16;13.40;99.90
3312;DHT22;1668;49.648;8.570;2023-05-10T04:45:42;13.50;99.90
3312;DHT22;1668;49.648;8.570;2023-05-10T04:48:09;13.40;99.90
3312;DHT22;1668;49.648;8.570;2023-05-10T04:50:36;13.40;99.90
3312;DHT22;1668;49.648;8.570;2023-05-10T04:53:03;13.40;99.90
3312;DHT22;1668;49.648;8.570;2023-05-10T04:55:31;13.40;99.90
3312;DHT22;1668;49.648;8.570;2023-05-10T04:57:58;13.40;99.90
3312;DHT22;1668;49.648;8.570;2023-05-10T05:00:25;13.40;99.90
3312;DHT22;1668;49.648;8.570;2023-05-10T05:02:51;13.40;99.90
3312;DHT22;1668;49.648;8.570;2023-05-10T05:05:18;13.40;99.90
3312;DHT22;1668;49.648;8.570;2023-05-10T05:07:45;13.40;99.90
3312;DHT22;1668;49.648;8.570;2023-05-10T05:10:12;13.40;99.90
3312;DHT22;1668;49.648;8.570;2023-05-10T05:12:40;13.40;99.90
3312;DHT22;1668;49.648;8.570;2023-05-10T05:15:07;13.40;99.90
3312;DHT22;1668;49.648;8.570;2023-05-10T05:17:35;13.40;99.90
3312;DHT22;1668;49.648;8.570;2023-05-10T05:20:02;13.40;99.90
3312;DHT22;1668;49.648;8.570;2023-05-10T05:22:29;13.40;99.90
3312;DHT22;1668;49.648;8.570;2023-05-10T05:24:56;13.50;99.90
3312;DHT22;1668;49.648;8.570;2023-05-10T05:27:24;13.40;99.90
3312;DHT22;1668;49.648;8.570;2023-05-10T05:29:53;13.40;99.90
3312;DHT22;1668;49.648;8.570;2023-05-10T05:32:20;13.50;99.90
3312;DHT22;1668;49.648;8.570;2023-05-10T05:34:47;13.50;99.90
3312;DHT22;1668;49.648;8.570;2023-05-10T05:37:14;13.50;99.90
3312;DHT22;1668;49.648;8.570;2023-05-10T05:39:42;13.50;99.90
3312;DHT22;1668;49.648;8.570;2023-05-10T05:42:09;13.50;99.90
3312;DHT22;1668;49.648;8.570;2023-05-10T05:44:36;13.50;99.90
3312;DHT22;1668;49.648;8.570;2023-05-10T05:47:05;13.50;99.90
3312;DHT22;1668;49.648;8.570;2023-05-10T05:49:31;13.60;99.90
3312;DHT22;1668;49.648;8.570;2023-05-10T05:51:59;13.60;99.90
3312;DHT22;1668;49.648;8.570;2023-05-10T05:54:26;13.60;99.90
3312;DHT22;1668;49.648;8.570;2023-05-10T05:56:54;13.60;99.90
3312;DHT22;1668;49.648;8.570;2023-05-10T05:59:21;13.60;99.90
3312;DHT22;1668;49.648;8.570;2023-05-10T06:01:48;13.60;99.90
3312;DHT22;1668;49.648;8.570;2023-05-10T06:04:16;13.70;99.90
3312;DHT22;1668;49.648;8.570;2023-05-10T06:06:43;13.70;99.90
3312;DHT22;1668;49.648;8.570;2023-05-10T06:09:10;13.70;99.90
3312;DHT22;1668;49.648;8.570;2023-05-10T06:11:37;13.70;99.90
3312;DHT22;1668;49.648;8.570;2023-05-10T06:14:06;13.70;99.90
3312;DHT22;1668;49.648;8.570;2023-05-10T06:16:33;13.70;99.90
3312;DHT22;1668;49.648;8.570;2023-05-10T06:19:00;13.70;99.90
3312;DHT22;1668;49.648;8.570;2023-05-10T06:21:28;13.70;99.90
3312;DHT22;1668;49.648;8.570;2023-05-10T06:23:55;13.70;99.90
3312;DHT22;1668;49.648;8.570;2023-05-10T06:26:22;13.80;99.90
3312;DHT22;1668;49.648;8.570;2023-05-10T06:28:48;13.80;99.90
3312;DHT22;1668;49.648;8.570;2023-05-10T06:31:15;13.80;99.90
3312;DHT22;1668;49.648;8.570;2023-05-10T06:33:43;13.80;99.90
3312;DHT22;1668;49.648;8.570;2023-05-10T06:36:10;13.80;99.90
3312;DHT22;1668;49.648;8.570;2023-05-10T06:38:38;13.80;99.90
3312;DHT22;1668;49.648;8.570;2023-05-10T06:41:05;13.80;99.90
3312;DHT22;1668;49.648;8.570;2023-05-10T06:43:32;13.80;99.90
3312;DHT22;1668;49.648;8.570;2023-05-10T06:45:58;13.90;99.90
3312;DHT22;1668;49.648;8.570;2023-05-10T06:48:25;13.90;99.90
3312;DHT22;1668;49.648;8.570;2023-05-10T06:50:52;13.90;99.90
3312;DHT22;1668;49.648;8.570;2023-05-10T06:53:19;14.00;99.90
3312;DHT22;1668;49.648;8.570;2023-05-10T06:55:47;14.00;99.90
3312;DHT22;1668;49.648;8.570;2023-05-10T06:58:15;14.00;99.90
3312;DHT22;1668;49.648;8.570;2023-05-10T07:00:42;14.00;99.90
3312;DHT22;1668;49.648;8.570;2023-05-10T07:03:09;14.00;99.90
3312;DHT22;1668;49.648;8.570;2023-05-10T07:05:36;14.00;99.90
3312;DHT22;1668;49.648;8.570;2023-05-10T07:08:03;14.10;99.90
3312;DHT22;1668;49.648;8.570;2023-05-10T07:10:30;14.10;99.90
3312;DHT22;1668;49.648;8.570;2023-05-10T07:12:58;14.10;99.90
3312;DHT22;1668;49.648;8.570;2023-05-10T07:15:25;14.10;99.90
3312;DHT22;1668;49.648;8.570;2023-05-10T07:17:52;14.10;99.90
3312;DHT22;1668;49.648;8.570;2023-05-10T07:20:19;14.10;99.90
3312;DHT22;1668;49.648;8.570;2023-05-10T07:22:46;14.10;99.90
3312;DHT22;1668;49.648;8.570;2023-05-10T07:25:13;14.10;99.90
3312;DHT22;1668;49.648;8.570;2023-05-10T07:27:39;14.20;99.90
3312;DHT22;1668;49.648;8.570;2023-05-10T07:30:09;14.20;99.90
3312;DHT22;1668;49.648;8.570;2023-05-10T07:32:36;14.20;99.90
3312;DHT22;1668;49.648;8.570;2023-05-10T07:35:03;14.20;99.90
3312;DHT22;1668;49.648;8.570;2023-05-10T07:37:30;14.20;99.90
3312;DHT22;1668;49.648;8.570;2023-05-10T07:39:56;14.30;99.90
3312;DHT22;1668;49.648;8.570;2023-05-10T07:42:23;14.30;99.90
3312;DHT22;1668;49.648;8.570;2023-05-10T07:44:50;14.40;99.90
3312;DHT22;1668;49.648;8.570;2023-05-10T07:47:18;14.40;99.90
3312;DHT22;1668;49.648;8.570;2023-05-10T07:49:45;14.40;99.90
3312;DHT22;1668;49.648;8.570;2023-05-10T07:52:11;14.40;99.90
3312;DHT22;1668;49.648;8.570;2023-05-10T07:54:39;14.50;99.90
3312;DHT22;1668;49.648;8.570;2023-05-10T07:57:05;14.50;99.90
3312;DHT22;1668;49.648;8.570;2023-05-10T07:59:32;14.60;99.90
3312;DHT22;1668;49.648;8.570;2023-05-10T08:01:59;14.60;99.90
3312;DHT22;1668;49.648;8.570;2023-05-10T08:04:27;14.60;99.90
3312;DHT22;1668;49.648;8.570;2023-05-10T08:06:54;14.70;99.90
3312;DHT22;1668;49.648;8.570;2023-05-10T08:09:21;14.70;99.90
3312;DHT22;1668;49.648;8.570;2023-05-10T08:11:49;14.70;99.90
3312;DHT22;1668;49.648;8.570;2023-05-10T08:14:16;14.80;99.90
3312;DHT22;1668;49.648;8.570;2023-05-10T08:16:43;14.90;99.90
3312;DHT22;1668;49.648;8.570;2023-05-10T08:19:09;14.90;29.40
3312;DHT22;1668;49.648;8.570;2023-05-10T08:21:37;15.00;1.00
3312;DHT22;1668;49.648;8.570;2023-05-10T08:24:06;15.00;1.00
3312;DHT22;1668;49.648;8.570;2023-05-10T08:26:33;15.10;1.00
3312;DHT22;1668;49.648;8.570;2023-05-10T08:29:00;15.20;1.00
3312;DHT22;1668;49.648;8.570;2023-05-10T08:31:26;15.30;1.00
3312;DHT22;1668;49.648;8.570;2023-05-10T08:33:53;15.40;1.00
3312;DHT22;1668;49.648;8.570;2023-05-10T08:36:20;15.40;1.00
3312;DHT22;1668;49.648;8.570;2023-05-10T08:38:51;15.50;1.00
3312;DHT22;1668;49.648;8.570;2023-05-10T08:41:19;15.60;99.90
3312;DHT22;1668;49.648;8.570;2023-05-10T08:43:47;15.70;99.90
3312;DHT22;1668;49.648;8.570;2023-05-10T08:46:15;15.80;1.00
3312;DHT22;1668;49.648;8.570;2023-05-10T08:49:04;15.90;99.90
3312;DHT22;1668;49.648;8.570;2023-05-10T08:51:36;16.00;99.90
3312;DHT22;1668;49.648;8.570;2023-05-10T08:54:04;16.10;19.40
3312;DHT22;1668;49.648;8.570;2023-05-10T08:56:31;16.20;1.00
3312;DHT22;1668;49.648;8.570;2023-05-10T08:58:59;16.20;1.00
3312;DHT22;1668;49.648;8.570;2023-05-10T09:01:27;16.30;1.00
3312;DHT22;1668;49.648;8.570;2023-05-10T09:04:13;16.40;99.90
3312;DHT22;1668;49.648;8.570;2023-05-10T09:06:39;16.40;99.90
3312;DHT22;1668;49.648;8.570;2023-05-10T09:09:08;16.30;99.90
3312;DHT22;1668;49.648;8.570;2023-05-10T09:11:51;16.30;99.90
3312;DHT22;1668;49.648;8.570;2023-05-10T09:14:18;16.40;99.90
3312;DHT22;1668;49.648;8.570;2023-05-10T09:17:05;16.40;1.00
3312;DHT22;1668;49.648;8.570;2023-05-10T09:19:57;16.40;99.90
3312;DHT22;1668;49.648;8.570;2023-05-10T09:22:44;16.40;99.90
3312;DHT22;1668;49.648;8.570;2023-05-10T09:25:14;16.50;1.00
3312;DHT22;1668;49.648;8.570;2023-05-10T09:27:44;16.60;1.00
3312;DHT22;1668;49.648;8.570;2023-05-10T09:30:16;16.60;1.00
3312;DHT22;1668;49.648;8.570;2023-05-10T09:32:44;16.60;1.00
3312;DHT22;1668;49.648;8.570;2023-05-10T09:35:12;16.70;1.00
3312;DHT22;1668;49.648;8.570;2023-05-10T09:37:40;16.70;99.90
3312;DHT22;1668;49.648;8.570;2023-05-10T09:40:13;16.60;1.00
3312;DHT22;1668;49.648;8.570;2023-05-10T09:42:41;16.60;1.00
3312;DHT22;1668;49.648;8.570;2023-05-10T09:45:09;16.60;1.00
3312;DHT22;1668;49.648;8.570;2023-05-10T09:47:36;16.60;1.00
3312;DHT22;1668;49.648;8.570;2023-05-10T09:50:04;16.60;1.00
3312;DHT22;1668;49.648;8.570;2023-05-10T09:52:46;16.60;1.00
3312;DHT22;1668;49.648;8.570;2023-05-10T09:55:15;16.60;99.90
3312;DHT22;1668;49.648;8.570;2023-05-10T09:57:42;16.60;1.00
3312;DHT22;1668;49.648;8.570;2023-05-10T10:00:09;16.60;97.70
3312;DHT22;1668;49.648;8.570;2023-05-10T10:02:36;16.60;1.00
3312;DHT22;1668;49.648;8.570;2023-05-10T10:05:03;16.70;99.90
3312;DHT22;1668;49.648;8.570;2023-05-10T10:07:33;16.80;1.00
3312;DHT22;1668;49.648;8.570;2023-05-10T10:10:00;16.90;75.20
3312;DHT22;1668;49.648;8.570;2023-05-10T10:12:29;17.00;1.00
3312;DHT22;1668;49.648;8.570;2023-05-10T10:14:56;17.00;99.90
3312;DHT22;1668;49.648;8.570;2023-05-10T10:17:24;17.00;1.00
3312;DHT22;1668;49.648;8.570;2023-05-10T10:19:54;16.90;99.90
3312;DHT22;1668;49.648;8.570;2023-05-10T10:22:22;16.90;99.90
3312;DHT22;1668;49.648;8.570;2023-05-10T10:24:49;17.00;1.00
3312;DHT22;1668;49.648;8.570;2023-05-10T10:27:23;17.00;1.00
3312;DHT22;1668;49.648;8.570;2023-05-10T10:30:04;17.10;1.00
3312;DHT22;1668;49.648;8.570;2023-05-10T10:33:08;17.20;1.00
3312;DHT22;1668;49.648;8.570;2023-05-10T10:35:38;17.20;99.90
3312;DHT22;1668;49.648;8.570;2023-05-10T10:38:07;17.20;99.90
3312;DHT22;1668;49.648;8.570;2023-05-10T10:40:34;17.20;1.00
3312;DHT22;1668;49.648;8.570;2023-05-10T10:43:22;17.20;99.90
3312;DHT22;1668;49.648;8.570;2023-05-10T10:46:13;17.10;1.00
3312;DHT22;1668;49.648;8.570;2023-05-10T10:48:40;17.10;1.00
3312;DHT22;1668;49.648;8.570;2023-05-10T10:51:07;17.20;1.00
3312;DHT22;1668;49.648;8.570;2023-05-10T10:53:34;17.20;99.90
3312;DHT22;1668;49.648;8.570;2023-05-10T10:56:07;17.30;99.90
3312;DHT22;1668;49.648;8.570;2023-05-10T10:58:36;17.40;99.90
3312;DHT22;1668;49.648;8.570;2023-05-10T11:01:11;17.50;99.90
3312;DHT22;1668;49.648;8.570;2023-05-10T11:03:39;17.50;99.90
3312;DHT22;1668;49.648;8.570;2023-05-10T11:06:06;17.60;99.90
3312;DHT22;1668;49.648;8.570;2023-05-10T11:08:41;17.60;99.90
3312;DHT22;1668;49.648;8.570;2023-05-10T11:11:09;17.60;99.90
3312;DHT22;1668;49.648;8.570;2023-05-10T11:13:41;17.60;99.90
3312;DHT22;1668;49.648;8.570;2023-05-10T11:16:16;17.50;99.90
3312;DHT22;1668;49.648;8.570;2023-05-10T11:19:02;17.50;99.90
3312;DHT22;1668;49.648;8.570;2023-05-10T11:21:30;17.50;99.90
3312;DHT22;1668;49.648;8.570;2023-05-10T11:23:57;17.60;99.90
3312;DHT22;1668;49.648;8.570;2023-05-10T11:26:26;17.70;99.90
3312;DHT22;1668;49.648;8.570;2023-05-10T11:28:56;17.70;99.90
3312;DHT22;1668;49.648;8.570;2023-05-10T11:31:24;17.60;99.90
3312;DHT22;1668;49.648;8.570;2023-05-10T11:33:53;17.70;99.90
3312;DHT22;1668;49.648;8.570;2023-05-10T11:36:24;17.80;99.90
3312;DHT22;1668;49.648;8.570;2023-05-10T11:38:52;17.90;99.90
3312;DHT22;1668;49.648;8.570;2023-05-10T11:41:19;17.90;99.90
3312;DHT22;1668;49.648;8.570;2023-05-10T11:43:49;18.00;99.90
3312;DHT22;1668;49.648;8.570;2023-05-10T11:46:18;18.10;99.90
3312;DHT22;1668;49.648;8.570;2023-05-10T11:48:47;18.20;99.90
3312;DHT22;1668;49.648;8.570;2023-05-10T11:51:15;18.40;99.90
3312;DHT22;1668;49.648;8.570;2023-05-10T11:53:43;18.40;40.40
3312;DHT22;1668;49.648;8.570;2023-05-10T11:56:10;18.60;71.40
3312;DHT22;1668;49.648;8.570;2023-05-10T11:58:38;18.60;1.00
3312;DHT22;1668;49.648;8.570;2023-05-10T12:01:07;18.60;1.00
3312;DHT22;1668;49.648;8.570;2023-05-10T12:03:34;18.80;1.00
3312;DHT22;1668;49.648;8.570;2023-05-10T12:06:02;19.00;1.00
3312;DHT22;1668;49.648;8.570;2023-05-10T12:08:29;19.00;1.00
3312;DHT22;1668;49.648;8.570;2023-05-10T12:11:06;19.00;1.00
3312;DHT22;1668;49.648;8.570;2023-05-10T12:13:37;19.00;1.00
3312;DHT22;1668;49.648;8.570;2023-05-10T12:16:13;19.00;1.00
3312;DHT22;1668;49.648;8.570;2023-05-10T12:18:40;19.20;1.00
3312;DHT22;1668;49.648;8.570;2023-05-10T12:21:09;19.30;1.00
3312;DHT22;1668;49.648;8.570;2023-05-10T12:23:36;19.30;1.00
3312;DHT22;1668;49.648;8.570;2023-05-10T12:26:05;19.30;1.00
3312;DHT22;1668;49.648;8.570;2023-05-10T12:28:33;19.40;1.00
3312;DHT22;1668;49.648;8.570;2023-05-10T12:31:01;19.40;1.00
3312;DHT22;1668;49.648;8.570;2023-05-10T12:33:35;19.50;1.00
3312;DHT22;1668;49.648;8.570;2023-05-10T12:36:05;19.60;1.00
3312;DHT22;1668;49.648;8.570;2023-05-10T12:38:33;19.50;1.00
3312;DHT22;1668;49.648;8.570;2023-05-10T12:41:02;19.60;1.00
3312;DHT22;1668;49.648;8.570;2023-05-10T12:43:32;19.50;1.00
3312;DHT22;1668;49.648;8.570;2023-05-10T12:46:05;19.40;1.00
3312;DHT22;1668;49.648;8.570;2023-05-10T12:48:32;19.40;1.00
3312;DHT22;1668;49.648;8.570;2023-05-10T12:50:59;19.30;1.00
3312;DHT22;1668;49.648;8.570;2023-05-10T12:53:26;19.30;1.00
3312;DHT22;1668;49.648;8.570;2023-05-10T12:55:53;19.30;1.00
3312;DHT22;1668;49.648;8.570;2023-05-10T12:58:19;19.20;1.00
3312;DHT22;1668;49.648;8.570;2023-05-10T13:00:47;19.10;1.00
3312;DHT22;1668;49.648;8.570;2023-05-10T13:03:15;18.90;1.00
3312;DHT22;1668;49.648;8.570;2023-05-10T13:05:41;18.80;1.00
3312;DHT22;1668;49.648;8.570;2023-05-10T13:08:08;18.70;1.00
3312;DHT22;1668;49.648;8.570;2023-05-10T13:10:35;18.80;1.00
3312;DHT22;1668;49.648;8.570;2023-05-10T13:13:02;18.80;1.00
3312;DHT22;1668;49.648;8.570;2023-05-10T13:15:28;18.90;1.00
3312;DHT22;1668;49.648;8.570;2023-05-10T13:17:57;18.80;1.00
3312;DHT22;1668;49.648;8.570;2023-05-10T13:20:24;18.80;1.00
3312;DHT22;1668;49.648;8.570;2023-05-10T13:22:51;19.00;1.00
3312;DHT22;1668;49.648;8.570;2023-05-10T13:25:18;19.10;1.00
3312;DHT22;1668;49.648;8.570;2023-05-10T13:27:45;19.10;1.00
3312;DHT22;1668;49.648;8.570;2023-05-10T13:30:12;19.00;1.00
3312;DHT22;1668;49.648;8.570;2023-05-10T13:32:39;18.90;1.00
3312;DHT22;1668;49.648;8.570;2023-05-10T13:35:07;18.80;1.00
3312;DHT22;1668;49.648;8.570;2023-05-10T13:37:34;18.80;1.00
3312;DHT22;1668;49.648;8.570;2023-05-10T13:40:03;18.90;1.00
3312;DHT22;1668;49.648;8.570;2023-05-10T13:42:30;18.90;1.00
3312;DHT22;1668;49.648;8.570;2023-05-10T13:44:58;18.90;1.00
3312;DHT22;1668;49.648;8.570;2023-05-10T13:47:25;18.90;1.00
3312;DHT22;1668;49.648;8.570;2023-05-10T13:49:52;19.00;1.00
3312;DHT22;1668;49.648;8.570;2023-05-10T13:52:20;19.20;1.00
3312;DHT22;1668;49.648;8.570;2023-05-10T13:54:47;19.20;1.00
3312;DHT22;1668;49.648;8.570;2023-05-10T13:57:14;19.40;1.00
3312;DHT22;1668;49.648;8.570;2023-05-10T13:59:42;19.40;1.00
3312;DHT22;1668;49.648;8.570;2023-05-10T14:02:08;19.60;1.00
3312;DHT22;1668;49.648;8.570;2023-05-10T14:04:36;19.60;1.00
3312;DHT22;1668;49.648;8.570;2023-05-10T14:07:03;19.50;1.00
3312;DHT22;1668;49.648;8.570;2023-05-10T14:09:31;19.40;1.00
3312;DHT22;1668;49.648;8.570;2023-05-10T14:11:58;19.40;1.00
3312;DHT22;1668;49.648;8.570;2023-05-10T14:14:24;19.50;1.00
3312;DHT22;1668;49.648;8.570;2023-05-10T14:16:51;19.60;1.00
3312;DHT22;1668;49.648;8.570;2023-05-10T14:19:18;19.60;1.00
3312;DHT22;1668;49.648;8.570;2023-05-10T14:21:45;19.60;1.00
3312;DHT22;1668;49.648;8.570;2023-05-10T14:24:11;19.60;1.00
3312;DHT22;1668;49.648;8.570;2023-05-10T14:26:39;19.40;1.00
3312;DHT22;1668;49.648;8.570;2023-05-10T14:29:06;19.30;1.00
3312;DHT22;1668;49.648;8.570;2023-05-10T14:31:33;19.40;1.00
3312;DHT22;1668;49.648;8.570;2023-05-10T14:34:00;19.50;1.00
3312;DHT22;1668;49.648;8.570;2023-05-10T14:36:28;19.60;1.00
3312;DHT22;1668;49.648;8.570;2023-05-10T14:38:55;19.70;1.00
3312;DHT22;1668;49.648;8.570;2023-05-10T14:41:23;19.90;1.00
3312;DHT22;1668;49.648;8.570;2023-05-10T14:43:51;20.00;1.00
3312;DHT22;1668;49.648;8.570;2023-05-10T14:46:18;19.90;1.00
3312;DHT22;1668;49.648;8.570;2023-05-10T14:48:45;19.90;1.00
3312;DHT22;1668;49.648;8.570;2023-05-10T14:51:11;19.90;1.00
3312;DHT22;1668;49.648;8.570;2023-05-10T14:53:38;19.80;1.00
3312;DHT22;1668;49.648;8.570;2023-05-10T14:56:05;19.90;1.00
3312;DHT22;1668;49.648;8.570;2023-05-10T14:58:32;20.00;1.00
3312;DHT22;1668;49.648;8.570;2023-05-10T15:01:00;20.00;1.00
3312;DHT22;1668;49.648;8.570;2023-05-10T15:03:27;19.90;1.00
3312;DHT22;1668;49.648;8.570;2023-05-10T15:05:53;19.70;1.00
3312;DHT22;1668;49.648;8.570;2023-05-10T15:08:21;19.80;1.00
3312;DHT22;1668;49.648;8.570;2023-05-10T15:10:49;19.80;1.00
3312;DHT22;1668;49.648;8.570;2023-05-10T15:13:16;19.70;1.00
3312;DHT22;1668;49.648;8.570;2023-05-10T15:15:42;19.80;1.00
3312;DHT22;1668;49.648;8.570;2023-05-10T15:18:11;19.80;1.00
3312;DHT22;1668;49.648;8.570;2023-05-10T15:20:38;19.90;1.00
3312;DHT22;1668;49.648;8.570;2023-05-10T15:23:04;19.80;1.00
3312;DHT22;1668;49.648;8.570;2023-05-10T15:25:31;19.70;1.00
3312;DHT22;1668;49.648;8.570;2023-05-10T15:28:00;19.80;1.00
3312;DHT22;1668;49.648;8.570;2023-05-10T15:30:27;19.70;1.00
3312;DHT22;1668;49.648;8.570;2023-05-10T15:32:54;19.60;1.00
3312;DHT22;1668;49.648;8.570;2023-05-10T15:35:22;19.60;1.00
3312;DHT22;1668;49.648;8.570;2023-05-10T15:37:49;19.40;1.00
3312;DHT22;1668;49.648;8.570;2023-05-10T15:40:16;19.50;1.00
3312;DHT22;1668;49.648;8.570;2023-05-10T15:42:42;19.60;1.00
3312;DHT22;1668;49.648;8.570;2023-05-10T15:45:10;19.50;1.00
3312;DHT22;1668;49.648;8.570;2023-05-10T15:47:37;19.60;1.00
3312;DHT22;1668;49.648;8.570;2023-05-10T15:50:06;19.50;1.00
3312;DHT22;1668;49.648;8.570;2023-05-10T15:52:34;19.40;1.00
3312;DHT22;1668;49.648;8.570;2023-05-10T15:55:01;19.40;1.00
3312;DHT22;1668;49.648;8.570;2023-05-10T15:57:29;19.60;1.00
3312;DHT22;1668;49.648;8.570;2023-05-10T15:59:56;19.70;1.00
3312;DHT22;1668;49.648;8.570;2023-05-10T16:02:22;19.80;1.00
3312;DHT22;1668;49.648;8.570;2023-05-10T16:04:49;19.90;1.00
3312;DHT22;1668;49.648;8.570;2023-05-10T16:07:16;20.00;1.00
3312;DHT22;1668;49.648;8.570;2023-05-10T16:09:44;20.10;1.00
3312;DHT22;1668;49.648;8.570;2023-05-10T16:12:11;20.20;1.00
3312;DHT22;1668;49.648;8.570;2023-05-10T16:14:38;20.30;1.00
3312;DHT22;1668;49.648;8.570;2023-05-10T16:17:04;20.40;1.00
3312;DHT22;1668;49.648;8.570;2023-05-10T16:19:32;20.70;1.00
3312;DHT22;1668;49.648;8.570;2023-05-10T16:21:59;21.00;1.00